createdAt,value
2019-01-06T00:00:13.691Z,1018.92
2019-01-06T00:01:23.637Z,1018.97
2019-01-06T00:02:33.604Z,1018.93
2019-01-06T00:03:43.049Z,1018.97
2019-01-06T00:04:52.746Z,1018.92
2019-01-06T00:06:02.442Z,1018.91
2019-01-06T00:07:12.381Z,1018.94
2019-01-06T00:08:22.323Z,1018.94
2019-01-06T00:09:32.288Z,1018.89
2019-01-06T00:10:41.988Z,1018.9
2019-01-06T00:11:51.682Z,1018.9
2019-01-06T00:13:01.206Z,1018.89
2019-01-06T00:14:11.177Z,1018.94
2019-01-06T00:15:21.135Z,1018.89
2019-01-06T00:16:31.072Z,1018.94
2019-01-06T00:17:40.500Z,1018.93
2019-01-06T00:18:50.183Z,1018.95
2019-01-06T00:19:59.887Z,1019
2019-01-06T00:21:09.830Z,1018.99
2019-01-06T00:22:19.527Z,1019.01
2019-01-06T00:23:29.223Z,1019
2019-01-06T00:24:38.907Z,1019.06
2019-01-06T00:25:48.847Z,1019.04
2019-01-06T00:26:58.799Z,1019.04
2019-01-06T00:28:08.740Z,1019.03
2019-01-06T00:29:18.679Z,1019.02
2019-01-06T00:30:28.626Z,1019.03
2019-01-06T00:31:38.578Z,1019.02
2019-01-06T00:32:48.528Z,1019.09
2019-01-06T00:33:58.474Z,1019.03
2019-01-06T00:35:08.416Z,1018.99
2019-01-06T00:36:18.115Z,1019.08
2019-01-06T00:37:28.070Z,1019.03
2019-01-06T00:38:37.763Z,1019.05
2019-01-06T00:39:47.701Z,1019.04
2019-01-06T00:40:57.398Z,1019.01
2019-01-06T00:42:07.097Z,1019.09
2019-01-06T00:43:17.040Z,1019.09
2019-01-06T00:44:26.732Z,1019.09
2019-01-06T00:45:36.261Z,1019.12
2019-01-06T00:46:45.965Z,1019.09
2019-01-06T00:47:55.914Z,1019.14
2019-01-06T00:49:05.611Z,1019.2
2019-01-06T00:50:15.563Z,1019.13
2019-01-06T00:51:25.261Z,1019.13
2019-01-06T00:52:35.191Z,1019.12
2019-01-06T00:53:45.147Z,1019.14
2019-01-06T00:54:54.859Z,1019.13
2019-01-06T00:56:04.549Z,1019.14
2019-01-06T00:57:13.731Z,1019.1
2019-01-06T00:58:23.415Z,1019.15
2019-01-06T00:59:33.421Z,1019.14
2019-01-06T01:00:43.593Z,1019.2
2019-01-06T01:01:53.285Z,1019.19
2019-01-06T01:03:03.246Z,1019.26
2019-01-06T01:04:13.190Z,1019.22
2019-01-06T01:05:23.136Z,1019.24
2019-01-06T01:06:33.080Z,1019.13
2019-01-06T01:07:43.041Z,1019.23
2019-01-06T01:08:52.973Z,1019.32
2019-01-06T01:10:02.938Z,1019.27
2019-01-06T01:11:12.890Z,1019.25
2019-01-06T01:12:22.851Z,1019.15
2019-01-06T01:13:32.795Z,1019.23
2019-01-06T01:14:42.484Z,1019.21
2019-01-06T01:15:52.187Z,1019.23
2019-01-06T01:17:01.861Z,1019.2
2019-01-06T01:18:11.557Z,1019.22
2019-01-06T01:19:21.523Z,1019.25
2019-01-06T01:20:31.210Z,1019.21
2019-01-06T01:21:40.903Z,1019.29
2019-01-06T01:22:50.879Z,1019.33
2019-01-06T01:24:00.828Z,1019.31
2019-01-06T01:25:10.529Z,1019.37
2019-01-06T01:26:20.473Z,1019.37
2019-01-06T01:27:30.170Z,1019.31
2019-01-06T01:28:40.099Z,1019.31
2019-01-06T01:29:49.794Z,1019.31
2019-01-06T01:30:59.489Z,1019.33
2019-01-06T01:32:09.434Z,1019.37
2019-01-06T01:33:19.133Z,1019.37
2019-01-06T01:34:28.820Z,1019.38
2019-01-06T01:35:38.758Z,1019.41
2019-01-06T01:36:48.693Z,1019.41
2019-01-06T01:37:58.619Z,1019.44
2019-01-06T01:39:08.321Z,1019.41
2019-01-06T01:40:18.285Z,1019.48
2019-01-06T01:41:27.981Z,1019.44
2019-01-06T01:42:37.455Z,1019.45
2019-01-06T01:43:47.384Z,1019.48
2019-01-06T01:44:57.330Z,1019.54
2019-01-06T01:46:07.264Z,1019.52
2019-01-06T01:47:16.952Z,1019.48
2019-01-06T01:48:26.646Z,1019.5
2019-01-06T01:49:36.075Z,1019.53
2019-01-06T01:50:46.053Z,1019.51
2019-01-06T01:51:56.251Z,1019.51
2019-01-06T01:53:05.925Z,1019.47
2019-01-06T01:54:15.625Z,1019.49
2019-01-06T01:55:25.304Z,1019.49
2019-01-06T01:56:34.757Z,1019.45
2019-01-06T01:57:44.522Z,1019.52
2019-01-06T01:58:54.215Z,1019.49
2019-01-06T02:00:03.896Z,1019.48
2019-01-06T02:01:13.332Z,1019.56
2019-01-06T02:02:23.012Z,1019.58
2019-01-06T02:03:32.947Z,1019.61
2019-01-06T02:04:42.629Z,1019.6
2019-01-06T02:05:52.549Z,1019.64
2019-01-06T02:07:02.497Z,1019.62
2019-01-06T02:08:12.191Z,1019.62
2019-01-06T02:09:22.121Z,1019.64
2019-01-06T02:10:32.063Z,1019.66
2019-01-06T02:11:41.247Z,1019.71
2019-01-06T02:12:51.178Z,1019.74
2019-01-06T02:14:00.867Z,1019.75
2019-01-06T02:15:10.892Z,1019.77
2019-01-06T02:16:20.837Z,1019.82
2019-01-06T02:17:30.777Z,1019.83
2019-01-06T02:18:40.263Z,1019.83
2019-01-06T02:19:50.149Z,1019.85
2019-01-06T02:21:00.087Z,1019.84
2019-01-06T02:22:10.022Z,1019.84
2019-01-06T02:23:19.947Z,1019.89
2019-01-06T02:24:29.894Z,1019.9
2019-01-06T02:25:39.559Z,1019.9
2019-01-06T02:26:49.246Z,1019.87
2019-01-06T02:27:59.180Z,1019.84
2019-01-06T02:29:08.869Z,1019.86
2019-01-06T02:30:18.559Z,1019.88
2019-01-06T02:31:28.510Z,1019.85
2019-01-06T02:32:38.465Z,1019.83
2019-01-06T02:33:48.393Z,1019.85
2019-01-06T02:34:58.089Z,1019.85
2019-01-06T02:36:08.036Z,1019.84
2019-01-06T02:37:18.006Z,1019.79
2019-01-06T02:38:27.950Z,1019.8
2019-01-06T02:39:37.902Z,1019.8
2019-01-06T02:40:47.348Z,1019.79
2019-01-06T02:41:57.299Z,1019.81
2019-01-06T02:43:06.494Z,1019.8
2019-01-06T02:44:16.489Z,1019.83
2019-01-06T02:45:25.925Z,1019.81
2019-01-06T02:46:35.376Z,1019.84
2019-01-06T02:47:45.070Z,1019.87
2019-01-06T02:48:55.030Z,1019.83
2019-01-06T02:50:04.969Z,1019.89
2019-01-06T02:51:14.904Z,1019.89
2019-01-06T02:52:24.591Z,1019.89
2019-01-06T02:53:34.516Z,1019.92
2019-01-06T02:54:44.238Z,1019.93
2019-01-06T02:55:54.174Z,1019.97
2019-01-06T02:57:03.362Z,1019.95
2019-01-06T02:58:13.044Z,1019.96
2019-01-06T02:59:22.744Z,1019.96
2019-01-06T03:00:32.439Z,1019.97
2019-01-06T03:01:42.120Z,1019.98
2019-01-06T03:02:51.822Z,1019.93
2019-01-06T03:04:01.784Z,1019.94
2019-01-06T03:05:11.489Z,1019.94
2019-01-06T03:06:21.207Z,1020
2019-01-06T03:07:31.150Z,1019.99
2019-01-06T03:08:40.880Z,1020.03
2019-01-06T03:09:50.820Z,1019.98
2019-01-06T03:11:00.710Z,1020.02
2019-01-06T03:12:10.648Z,1020.04
2019-01-06T03:13:20.343Z,1020.07
2019-01-06T03:14:30.273Z,1020.03
2019-01-06T03:15:40.223Z,1020
2019-01-06T03:16:50.156Z,1019.99
2019-01-06T03:18:00.120Z,1020.03
2019-01-06T03:19:09.818Z,1020.03
2019-01-06T03:20:19.771Z,1020.07
2019-01-06T03:21:29.782Z,1020.08
2019-01-06T03:22:39.468Z,1020.06
2019-01-06T03:23:49.413Z,1020.08
2019-01-06T03:24:58.850Z,1020.04
2019-01-06T03:26:08.796Z,1020.08
2019-01-06T03:27:18.750Z,1020.12
2019-01-06T03:28:28.691Z,1020.16
2019-01-06T03:29:38.385Z,1020.12
2019-01-06T03:30:48.315Z,1020.07
2019-01-06T03:31:58.316Z,1020.06
2019-01-06T03:33:08.178Z,1020.05
2019-01-06T03:34:18.159Z,1020.1
2019-01-06T03:35:28.110Z,1020.04
2019-01-06T03:36:38.066Z,1020.09
2019-01-06T03:37:47.506Z,1020.1
2019-01-06T03:38:57.214Z,1020.08
2019-01-06T03:40:07.164Z,1020.07
2019-01-06T03:41:16.608Z,1020.08
2019-01-06T03:42:26.554Z,1020.09
2019-01-06T03:43:36.497Z,1020.11
2019-01-06T03:44:46.432Z,1020.1
2019-01-06T03:45:56.386Z,1020.07
2019-01-06T03:47:06.080Z,1020.07
2019-01-06T03:48:16.018Z,1020.09
2019-01-06T03:49:25.956Z,1020.09
2019-01-06T03:50:35.663Z,1020.12
2019-01-06T03:51:45.360Z,1020.12
2019-01-06T03:52:55.308Z,1020.12
2019-01-06T03:54:05.276Z,1020.11
2019-01-06T03:55:15.226Z,1020.2
2019-01-06T03:56:24.933Z,1020.17
2019-01-06T03:57:34.863Z,1020.15
2019-01-06T03:58:44.316Z,1020.1
2019-01-06T03:59:54.286Z,1020.04
2019-01-06T04:01:06.165Z,1020.07
2019-01-06T04:02:15.836Z,1020.07
2019-01-06T04:03:25.790Z,1020.18
2019-01-06T04:04:35.482Z,1020.2
2019-01-06T04:05:45.260Z,1020.17
2019-01-06T04:06:54.961Z,1020.22
2019-01-06T04:08:04.918Z,1020.2
2019-01-06T04:09:14.617Z,1020.21
2019-01-06T04:10:24.562Z,1020.18
2019-01-06T04:11:34.519Z,1020.15
2019-01-06T04:12:44.214Z,1020.19
2019-01-06T04:13:54.176Z,1020.16
2019-01-06T04:15:03.860Z,1020.16
2019-01-06T04:16:13.565Z,1020.16
2019-01-06T04:17:23.003Z,1020.22
2019-01-06T04:18:32.938Z,1020.24
2019-01-06T04:19:42.917Z,1020.29
2019-01-06T04:20:52.872Z,1020.22
2019-01-06T04:22:02.564Z,1020.25
2019-01-06T04:23:12.256Z,1020.27
2019-01-06T04:24:21.940Z,1020.29
2019-01-06T04:25:31.626Z,1020.31
2019-01-06T04:26:41.353Z,1020.25
2019-01-06T04:27:51.294Z,1020.25
2019-01-06T04:29:00.990Z,1020.23
2019-01-06T04:30:10.925Z,1020.21
2019-01-06T04:31:20.870Z,1020.27
2019-01-06T04:32:30.574Z,1020.26
2019-01-06T04:33:40.532Z,1020.25
2019-01-06T04:34:50.483Z,1020.21
2019-01-06T04:36:00.439Z,1020.2
2019-01-06T04:37:10.377Z,1020.16
2019-01-06T04:38:20.331Z,1020.16
2019-01-06T04:39:29.782Z,1020.17
2019-01-06T04:40:39.713Z,1020.16
2019-01-06T04:41:49.638Z,1020.13
2019-01-06T04:42:59.586Z,1020.2
2019-01-06T04:44:09.362Z,1020.19
2019-01-06T04:45:19.151Z,1020.13
2019-01-06T04:46:29.113Z,1020.2
2019-01-06T04:47:39.058Z,1020.24
2019-01-06T04:48:49.001Z,1020.29
2019-01-06T04:49:58.936Z,1020.24
2019-01-06T04:51:08.881Z,1020.25
2019-01-06T04:52:18.828Z,1020.25
2019-01-06T04:53:28.762Z,1020.19
2019-01-06T04:54:38.463Z,1020.22
2019-01-06T04:55:48.628Z,1020.25
2019-01-06T04:56:58.556Z,1020.3
2019-01-06T04:58:08.558Z,1020.33
2019-01-06T04:59:18.493Z,1020.31
2019-01-06T05:00:28.523Z,1020.28
2019-01-06T05:01:38.263Z,1020.22
2019-01-06T05:02:48.223Z,1020.28
2019-01-06T05:03:57.679Z,1020.28
2019-01-06T05:05:07.387Z,1020.29
2019-01-06T05:06:17.322Z,1020.28
2019-01-06T05:07:27.258Z,1020.26
2019-01-06T05:08:36.946Z,1020.31
2019-01-06T05:09:46.887Z,1020.33
2019-01-06T05:10:56.848Z,1020.35
2019-01-06T05:12:06.814Z,1020.39
2019-01-06T05:13:16.783Z,1020.32
2019-01-06T05:14:26.740Z,1020.34
2019-01-06T05:15:36.417Z,1020.39
2019-01-06T05:16:46.133Z,1020.36
2019-01-06T05:17:56.072Z,1020.35
2019-01-06T05:19:05.502Z,1020.34
2019-01-06T05:20:15.444Z,1020.34
2019-01-06T05:21:25.386Z,1020.39
2019-01-06T05:22:35.334Z,1020.41
2019-01-06T05:23:45.274Z,1020.48
2019-01-06T05:24:54.963Z,1020.43
2019-01-06T05:26:04.684Z,1020.42
2019-01-06T05:27:14.374Z,1020.41
2019-01-06T05:28:24.066Z,1020.43
2019-01-06T05:29:33.746Z,1020.38
2019-01-06T05:30:43.690Z,1020.37
2019-01-06T05:31:53.118Z,1020.37
2019-01-06T05:33:03.118Z,1020.43
2019-01-06T05:34:12.806Z,1020.42
2019-01-06T05:35:22.252Z,1020.43
2019-01-06T05:36:32.209Z,1020.43
2019-01-06T05:37:42.147Z,1020.44
2019-01-06T05:38:51.582Z,1020.51
2019-01-06T05:40:01.016Z,1020.52
2019-01-06T05:41:10.957Z,1020.54
2019-01-06T05:42:20.656Z,1020.57
2019-01-06T05:43:30.352Z,1020.54
2019-01-06T05:44:40.336Z,1020.57
2019-01-06T05:45:50.044Z,1020.61
2019-01-06T05:46:59.999Z,1020.62
2019-01-06T05:48:09.941Z,1020.64
2019-01-06T05:49:19.872Z,1020.68
2019-01-06T05:50:29.579Z,1020.66
2019-01-06T05:51:39.532Z,1020.72
2019-01-06T05:52:49.460Z,1020.7
2019-01-06T05:53:58.896Z,1020.73
2019-01-06T05:55:08.380Z,1020.76
2019-01-06T05:56:18.327Z,1020.77
2019-01-06T05:57:28.277Z,1020.83
2019-01-06T05:58:37.957Z,1020.86
2019-01-06T05:59:47.977Z,1020.86
2019-01-06T06:00:57.918Z,1020.85
2019-01-06T06:02:07.955Z,1020.88
2019-01-06T06:03:17.638Z,1020.85
2019-01-06T06:04:27.325Z,1020.89
2019-01-06T06:05:37.018Z,1020.93
2019-01-06T06:06:46.204Z,1021
2019-01-06T06:07:55.630Z,1021.02
2019-01-06T06:09:05.580Z,1021.02
2019-01-06T06:10:15.283Z,1020.97
2019-01-06T06:11:25.241Z,1020.96
2019-01-06T06:12:35.175Z,1020.99
2019-01-06T06:13:44.883Z,1020.99
2019-01-06T06:14:54.816Z,1021.08
2019-01-06T06:16:04.507Z,1021.06
2019-01-06T06:17:13.942Z,1021.06
2019-01-06T06:18:23.870Z,1020.97
2019-01-06T06:19:33.567Z,1020.98
2019-01-06T06:20:43.509Z,1021.01
2019-01-06T06:21:52.943Z,1020.96
2019-01-06T06:23:02.880Z,1020.98
2019-01-06T06:24:12.570Z,1021.08
2019-01-06T06:25:23.051Z,1021.11
2019-01-06T06:26:32.820Z,1021.12
2019-01-06T06:27:42.813Z,1021.1
2019-01-06T06:28:52.799Z,1021.1
2019-01-06T06:30:02.743Z,1021.16
2019-01-06T06:31:12.430Z,1021.19
2019-01-06T06:32:21.862Z,1021.19
2019-01-06T06:33:31.807Z,1021.2
2019-01-06T06:34:41.515Z,1021.2
2019-01-06T06:35:51.201Z,1021.19
2019-01-06T06:37:00.643Z,1021.24
2019-01-06T06:38:10.584Z,1021.23
2019-01-06T06:39:20.530Z,1021.21
2019-01-06T06:40:30.213Z,1021.24
2019-01-06T06:41:40.170Z,1021.26
2019-01-06T06:42:49.866Z,1021.3
2019-01-06T06:43:59.805Z,1021.33
2019-01-06T06:45:09.753Z,1021.35
2019-01-06T06:46:19.697Z,1021.33
2019-01-06T06:47:29.675Z,1021.3
2019-01-06T06:48:39.645Z,1021.38
2019-01-06T06:49:49.582Z,1021.37
2019-01-06T06:50:59.549Z,1021.37
2019-01-06T06:52:09.503Z,1021.37
2019-01-06T06:53:19.441Z,1021.39
2019-01-06T06:54:29.133Z,1021.39
2019-01-06T06:55:39.072Z,1021.39
2019-01-06T06:56:48.515Z,1021.44
2019-01-06T06:57:58.479Z,1021.43
2019-01-06T06:59:07.913Z,1021.46
2019-01-06T07:00:17.607Z,1021.44
2019-01-06T07:01:27.563Z,1021.36
2019-01-06T07:02:37.257Z,1021.39
2019-01-06T07:03:47.212Z,1021.43
2019-01-06T07:04:57.149Z,1021.47
2019-01-06T07:06:06.596Z,1021.44
2019-01-06T07:07:16.023Z,1021.45
2019-01-06T07:08:25.957Z,1021.45
2019-01-06T07:09:35.897Z,1021.52
2019-01-06T07:10:45.823Z,1021.52
2019-01-06T07:11:55.763Z,1021.51
2019-01-06T07:13:05.694Z,1021.56
2019-01-06T07:14:15.383Z,1021.55
2019-01-06T07:15:25.342Z,1021.56
2019-01-06T07:16:35.293Z,1021.55
2019-01-06T07:17:44.995Z,1021.62
2019-01-06T07:18:54.971Z,1021.6
2019-01-06T07:20:04.933Z,1021.61
2019-01-06T07:21:14.631Z,1021.64
2019-01-06T07:22:24.333Z,1021.62
2019-01-06T07:23:34.021Z,1021.62
2019-01-06T07:24:43.453Z,1021.61
2019-01-06T07:25:53.390Z,1021.64
2019-01-06T07:27:03.334Z,1021.66
2019-01-06T07:28:13.275Z,1021.69
2019-01-06T07:29:23.221Z,1021.71
2019-01-06T07:30:32.911Z,1021.73
2019-01-06T07:31:42.601Z,1021.78
2019-01-06T07:32:52.537Z,1021.79
2019-01-06T07:34:02.224Z,1021.88
2019-01-06T07:35:11.895Z,1021.86
2019-01-06T07:36:21.329Z,1021.87
2019-01-06T07:37:31.031Z,1021.84
2019-01-06T07:38:40.989Z,1021.82
2019-01-06T07:39:50.929Z,1021.82
2019-01-06T07:41:00.353Z,1021.86
2019-01-06T07:42:10.302Z,1021.86
2019-01-06T07:43:19.749Z,1021.87
2019-01-06T07:44:29.749Z,1021.87
2019-01-06T07:45:39.690Z,1021.86
2019-01-06T07:46:49.389Z,1021.87
2019-01-06T07:47:59.321Z,1021.9
2019-01-06T07:49:09.024Z,1021.99
2019-01-06T07:50:18.964Z,1021.97
2019-01-06T07:51:28.656Z,1021.94
2019-01-06T07:52:38.593Z,1021.96
2019-01-06T07:53:48.541Z,1021.94
2019-01-06T07:54:58.226Z,1021.92
2019-01-06T07:56:08.179Z,1021.91
2019-01-06T07:57:17.859Z,1021.92
2019-01-06T07:58:27.794Z,1021.96
2019-01-06T07:59:37.747Z,1021.91
2019-01-06T08:00:47.690Z,1021.92
2019-01-06T08:01:57.379Z,1021.93
2019-01-06T08:03:07.310Z,1022.01
2019-01-06T08:04:17.255Z,1021.96
2019-01-06T08:05:26.949Z,1021.94
2019-01-06T08:06:36.874Z,1021.96
2019-01-06T08:07:46.563Z,1021.98
2019-01-06T08:08:56.260Z,1022.01
2019-01-06T08:10:06.191Z,1022.01
2019-01-06T08:11:16.137Z,1022.05
2019-01-06T08:12:26.073Z,1022.07
2019-01-06T08:13:35.765Z,1022.07
2019-01-06T08:14:45.212Z,1022.09
2019-01-06T08:15:55.179Z,1022.05
2019-01-06T08:17:05.123Z,1022.02
2019-01-06T08:18:14.566Z,1022.02
2019-01-06T08:19:24.518Z,1022.01
2019-01-06T08:20:34.223Z,1022.06
2019-01-06T08:21:44.164Z,1022.08
2019-01-06T08:22:53.867Z,1022.03
2019-01-06T08:24:03.816Z,1022.12
2019-01-06T08:25:13.509Z,1022.13
2019-01-06T08:26:22.500Z,1022.15
2019-01-06T08:27:32.434Z,1022.15
2019-01-06T08:28:42.375Z,1022.13
2019-01-06T08:29:51.821Z,1022.18
2019-01-06T08:31:01.768Z,1022.15
2019-01-06T08:32:11.696Z,1022.2
2019-01-06T08:33:21.387Z,1022.22
2019-01-06T08:34:31.339Z,1022.19
2019-01-06T08:35:41.283Z,1022.24
2019-01-06T08:36:50.972Z,1022.26
2019-01-06T08:38:00.669Z,1022.25
2019-01-06T08:39:10.375Z,1022.27
2019-01-06T08:40:20.330Z,1022.23
2019-01-06T08:41:30.014Z,1022.24
2019-01-06T08:42:39.701Z,1022.28
2019-01-06T08:43:49.633Z,1022.27
2019-01-06T08:44:59.325Z,1022.35
2019-01-06T08:46:09.297Z,1022.35
2019-01-06T08:47:19.052Z,1022.33
2019-01-06T08:48:28.489Z,1022.37
2019-01-06T08:49:38.453Z,1022.38
2019-01-06T08:50:48.437Z,1022.38
2019-01-06T08:51:58.371Z,1022.43
2019-01-06T08:53:08.313Z,1022.35
2019-01-06T08:54:18.244Z,1022.38
2019-01-06T08:55:27.956Z,1022.38
2019-01-06T08:56:37.907Z,1022.34
2019-01-06T08:57:47.600Z,1022.41
2019-01-06T08:58:57.551Z,1022.4
2019-01-06T09:00:07.231Z,1022.41
2019-01-06T09:01:16.923Z,1022.43
2019-01-06T09:02:26.956Z,1022.42
2019-01-06T09:03:36.637Z,1022.43
2019-01-06T09:04:46.109Z,1022.43
2019-01-06T09:05:55.537Z,1022.44
2019-01-06T09:07:05.489Z,1022.42
2019-01-06T09:08:15.184Z,1022.46
2019-01-06T09:09:25.149Z,1022.43
2019-01-06T09:10:34.853Z,1022.41
2019-01-06T09:11:44.561Z,1022.39
2019-01-06T09:12:54.257Z,1022.46
2019-01-06T09:14:03.945Z,1022.48
2019-01-06T09:15:13.896Z,1022.49
2019-01-06T09:16:23.847Z,1022.46
2019-01-06T09:17:33.801Z,1022.44
2019-01-06T09:18:43.754Z,1022.44
2019-01-06T09:19:53.444Z,1022.43
2019-01-06T09:21:03.934Z,1022.43
2019-01-06T09:22:13.876Z,1022.46
2019-01-06T09:23:23.580Z,1022.51
2019-01-06T09:24:33.272Z,1022.52
2019-01-06T09:25:43.229Z,1022.54
2019-01-06T09:26:53.223Z,1022.49
2019-01-06T09:28:03.172Z,1022.5
2019-01-06T09:29:12.852Z,1022.44
2019-01-06T09:30:22.549Z,1022.48
2019-01-06T09:31:32.512Z,1022.42
2019-01-06T09:32:42.461Z,1022.4
2019-01-06T09:33:51.918Z,1022.43
2019-01-06T09:35:01.867Z,1022.42
2019-01-06T09:36:12.210Z,1022.38
2019-01-06T09:37:22.153Z,1022.43
2019-01-06T09:38:31.841Z,1022.41
2019-01-06T09:39:41.531Z,1022.44
2019-01-06T09:40:51.242Z,1022.41
2019-01-06T09:42:00.940Z,1022.47
2019-01-06T09:43:10.650Z,1022.47
2019-01-06T09:44:20.604Z,1022.5
2019-01-06T09:45:31.014Z,1022.5
2019-01-06T09:46:41.064Z,1022.47
2019-01-06T09:47:52.336Z,1022.49
2019-01-06T09:49:02.030Z,1022.52
2019-01-06T09:50:11.988Z,1022.52
2019-01-06T09:51:21.934Z,1022.54
2019-01-06T09:52:31.892Z,1022.54
2019-01-06T09:53:41.825Z,1022.56
2019-01-06T09:54:51.761Z,1022.56
2019-01-06T09:56:01.745Z,1022.55
2019-01-06T09:57:12.088Z,1022.55
2019-01-06T09:58:22.152Z,1022.56
2019-01-06T09:59:32.108Z,1022.48
2019-01-06T10:00:41.558Z,1022.42
2019-01-06T10:01:52.847Z,1022.42
2019-01-06T10:03:02.689Z,1022.43
2019-01-06T10:04:12.376Z,1022.42
2019-01-06T10:05:22.058Z,1022.44
2019-01-06T10:06:32.018Z,1022.42
2019-01-06T10:07:41.740Z,1022.43
2019-01-06T10:08:51.446Z,1022.46
2019-01-06T10:10:01.147Z,1022.4
2019-01-06T10:11:11.102Z,1022.44
2019-01-06T10:12:21.030Z,1022.44
2019-01-06T10:13:30.988Z,1022.4
2019-01-06T10:14:40.932Z,1022.45
2019-01-06T10:15:50.380Z,1022.44
2019-01-06T10:16:59.578Z,1022.46
2019-01-06T10:18:09.545Z,1022.46
2019-01-06T10:19:19.502Z,1022.42
2019-01-06T10:20:29.444Z,1022.41
2019-01-06T10:21:39.405Z,1022.45
2019-01-06T10:22:49.111Z,1022.48
2019-01-06T10:23:58.818Z,1022.43
2019-01-06T10:25:08.515Z,1022.45
2019-01-06T10:26:18.532Z,1022.53
2019-01-06T10:27:28.488Z,1022.51
2019-01-06T10:28:38.201Z,1022.51
2019-01-06T10:29:49.788Z,1022.53
2019-01-06T10:30:59.742Z,1022.51
2019-01-06T10:32:09.257Z,1022.46
2019-01-06T10:33:18.948Z,1022.44
2019-01-06T10:34:28.901Z,1022.4
2019-01-06T10:35:38.860Z,1022.47
2019-01-06T10:36:48.604Z,1022.47
2019-01-06T10:37:58.310Z,1022.42
2019-01-06T10:39:08.339Z,1022.42
2019-01-06T10:40:18.291Z,1022.41
2019-01-06T10:41:27.998Z,1022.4
2019-01-06T10:42:37.948Z,1022.4
2019-01-06T10:43:47.915Z,1022.38
2019-01-06T10:44:57.872Z,1022.37
2019-01-06T10:46:07.824Z,1022.36
2019-01-06T10:47:17.533Z,1022.39
2019-01-06T10:48:26.967Z,1022.41
2019-01-06T10:49:36.923Z,1022.4
2019-01-06T10:50:46.889Z,1022.44
2019-01-06T10:51:56.327Z,1022.36
2019-01-06T10:53:05.778Z,1022.36
2019-01-06T10:54:15.575Z,1022.35
2019-01-06T10:55:25.274Z,1022.36
2019-01-06T10:56:35.234Z,1022.38
2019-01-06T10:57:45.178Z,1022.39
2019-01-06T10:58:55.127Z,1022.38
2019-01-06T11:00:05.509Z,1022.34
2019-01-06T11:01:15.050Z,1022.38
2019-01-06T11:02:25.006Z,1022.38
2019-01-06T11:03:34.775Z,1022.4
2019-01-06T11:04:44.218Z,1022.41
2019-01-06T11:05:54.174Z,1022.4
2019-01-06T11:07:03.889Z,1022.4
2019-01-06T11:08:13.827Z,1022.41
2019-01-06T11:09:25.643Z,1022.41
2019-01-06T11:10:35.372Z,1022.39
2019-01-06T11:11:45.102Z,1022.39
2019-01-06T11:12:55.064Z,1022.34
2019-01-06T11:14:04.252Z,1022.38
2019-01-06T11:15:14.233Z,1022.42
2019-01-06T11:16:24.179Z,1022.42
2019-01-06T11:17:33.872Z,1022.46
2019-01-06T11:18:43.830Z,1022.47
2019-01-06T11:19:53.798Z,1022.43
2019-01-06T11:21:03.813Z,1022.46
2019-01-06T11:22:13.516Z,1022.45
2019-01-06T11:23:23.052Z,1022.41
2019-01-06T11:24:33.006Z,1022.45
2019-01-06T11:25:42.957Z,1022.42
2019-01-06T11:26:52.932Z,1022.45
2019-01-06T11:28:02.892Z,1022.38
2019-01-06T11:29:12.854Z,1022.39
2019-01-06T11:30:22.811Z,1022.38
2019-01-06T11:31:32.254Z,1022.37
2019-01-06T11:32:42.204Z,1022.31
2019-01-06T11:33:51.915Z,1022.31
2019-01-06T11:35:03.094Z,1022.29
2019-01-06T11:36:13.051Z,1022.27
2019-01-06T11:37:22.745Z,1022.32
2019-01-06T11:38:33.289Z,1022.28
2019-01-06T11:39:42.724Z,1022.28
2019-01-06T11:40:52.412Z,1022.23
2019-01-06T11:42:08.643Z,1022.2
2019-01-06T11:43:18.624Z,1022.23
2019-01-06T11:44:28.567Z,1022.16
2019-01-06T11:45:38.517Z,1022.21
2019-01-06T11:46:48.474Z,1022.21
2019-01-06T11:47:58.160Z,1022.19
2019-01-06T11:49:08.136Z,1022.23
2019-01-06T11:50:18.078Z,1022.22
2019-01-06T11:51:28.038Z,1022.22
2019-01-06T11:52:37.997Z,1022.24
2019-01-06T11:53:47.771Z,1022.19
2019-01-06T11:54:57.716Z,1022.2
2019-01-06T11:56:07.728Z,1022.26
2019-01-06T11:57:17.671Z,1022.25
2019-01-06T11:58:27.472Z,1022.26
2019-01-06T11:59:36.905Z,1022.18
2019-01-06T12:00:46.107Z,1022.23
2019-01-06T12:01:57.143Z,1022.2
2019-01-06T12:03:06.906Z,1022.22
2019-01-06T12:04:16.626Z,1022.27
2019-01-06T12:05:26.567Z,1022.24
2019-01-06T12:06:36.522Z,1022.27
2019-01-06T12:07:46.212Z,1022.27
2019-01-06T12:08:55.903Z,1022.29
2019-01-06T12:10:05.591Z,1022.25
2019-01-06T12:11:15.290Z,1022.28
2019-01-06T12:12:25.234Z,1022.2
2019-01-06T12:13:35.191Z,1022.22
2019-01-06T12:14:45.150Z,1022.18
2019-01-06T12:15:55.090Z,1022.23
2019-01-06T12:17:04.788Z,1022.21
2019-01-06T12:18:14.478Z,1022.24
2019-01-06T12:19:24.425Z,1022.27
2019-01-06T12:20:41.222Z,1022.24
2019-01-06T12:21:50.903Z,1022.28
2019-01-06T12:23:00.842Z,1022.22
2019-01-06T12:24:10.295Z,1022.23
2019-01-06T12:25:20.250Z,1022.3
2019-01-06T12:26:30.205Z,1022.29
2019-01-06T12:27:40.140Z,1022.32
2019-01-06T12:28:49.574Z,1022.33
2019-01-06T12:29:59.284Z,1022.31
2019-01-06T12:31:08.976Z,1022.29
2019-01-06T12:32:18.913Z,1022.25
2019-01-06T12:33:28.871Z,1022.29
2019-01-06T12:34:38.322Z,1022.37
2019-01-06T12:35:48.044Z,1022.34
2019-01-06T12:36:57.722Z,1022.38
2019-01-06T12:38:07.662Z,1022.35
2019-01-06T12:39:16.865Z,1022.39
2019-01-06T12:40:26.824Z,1022.3
2019-01-06T12:41:36.783Z,1022.34
2019-01-06T12:42:46.732Z,1022.3
2019-01-06T12:43:56.674Z,1022.32
2019-01-06T12:45:06.614Z,1022.26
2019-01-06T12:46:16.296Z,1022.28
2019-01-06T12:47:26.064Z,1022.36
2019-01-06T12:48:35.782Z,1022.35
2019-01-06T12:49:45.467Z,1022.36
2019-01-06T12:50:55.408Z,1022.38
2019-01-06T12:52:05.110Z,1022.36
2019-01-06T12:53:15.052Z,1022.29
2019-01-06T12:54:24.991Z,1022.34
2019-01-06T12:55:34.953Z,1022.32
2019-01-06T12:56:45.568Z,1022.3
2019-01-06T12:57:55.538Z,1022.35
2019-01-06T12:59:05.245Z,1022.34
2019-01-06T13:00:15.210Z,1022.38
2019-01-06T13:01:25.173Z,1022.39
2019-01-06T13:02:35.122Z,1022.42
2019-01-06T13:03:45.095Z,1022.47
2019-01-06T13:04:54.809Z,1022.46
2019-01-06T13:06:04.517Z,1022.53
2019-01-06T13:07:14.465Z,1022.54
2019-01-06T13:08:24.476Z,1022.52
2019-01-06T13:09:34.417Z,1022.6
2019-01-06T13:10:44.367Z,1022.53
2019-01-06T13:11:54.334Z,1022.57
2019-01-06T13:13:04.274Z,1022.6
2019-01-06T13:14:13.978Z,1022.6
2019-01-06T13:15:23.927Z,1022.61
2019-01-06T13:16:33.625Z,1022.62
2019-01-06T13:17:43.576Z,1022.67
2019-01-06T13:18:53.510Z,1022.66
2019-01-06T13:20:03.471Z,1022.69
2019-01-06T13:21:15.178Z,1022.7
2019-01-06T13:22:25.150Z,1022.71
2019-01-06T13:23:35.100Z,1022.75
2019-01-06T13:24:45.064Z,1022.74
2019-01-06T13:25:54.841Z,1022.72
2019-01-06T13:27:04.810Z,1022.74
2019-01-06T13:28:14.755Z,1022.72
2019-01-06T13:29:24.699Z,1022.71
2019-01-06T13:30:34.672Z,1022.71
2019-01-06T13:31:44.610Z,1022.65
2019-01-06T13:32:53.830Z,1022.67
2019-01-06T13:34:03.525Z,1022.7
2019-01-06T13:35:13.494Z,1022.71
2019-01-06T13:36:23.183Z,1022.69
2019-01-06T13:37:34.395Z,1022.68
2019-01-06T13:38:44.099Z,1022.63
2019-01-06T13:39:53.795Z,1022.7
2019-01-06T13:41:03.758Z,1022.68
2019-01-06T13:42:13.693Z,1022.67
2019-01-06T13:43:23.130Z,1022.7
2019-01-06T13:44:32.818Z,1022.71
2019-01-06T13:45:42.511Z,1022.65
2019-01-06T13:46:52.468Z,1022.69
2019-01-06T13:48:02.412Z,1022.7
2019-01-06T13:49:12.107Z,1022.67
2019-01-06T13:50:22.063Z,1022.63
2019-01-06T13:51:31.779Z,1022.65
2019-01-06T13:52:41.496Z,1022.64
2019-01-06T13:53:51.204Z,1022.67
2019-01-06T13:55:01.175Z,1022.73
2019-01-06T13:56:11.113Z,1022.65
2019-01-06T13:57:21.062Z,1022.71
2019-01-06T13:58:31.031Z,1022.76
2019-01-06T13:59:41.091Z,1022.74
2019-01-06T14:00:51.033Z,1022.72
2019-01-06T14:02:00.997Z,1022.7
2019-01-06T14:03:10.986Z,1022.66
2019-01-06T14:04:20.699Z,1022.68
2019-01-06T14:05:30.403Z,1022.76
2019-01-06T14:06:39.854Z,1022.75
2019-01-06T14:07:49.317Z,1022.76